sensor_id;sensor_type;location;lat;lon;timestamp;temperature;humidity
12655;DHT22;6392;44.644;11.448;2022-12-10T00:00:00;5.40;99.90
12655;DHT22;6392;44.644;11.448;2022-12-10T00:02:27;5.40;99.90
12655;DHT22;6392;44.644;11.448;2022-12-10T00:04:55;5.30;99.90
12655;DHT22;6392;44.644;11.448;2022-12-10T00:07:24;5.20;99.90
12655;DHT22;6392;44.644;11.448;2022-12-10T00:09:51;5.20;99.90
12655;DHT22;6392;44.644;11.448;2022-12-10T00:12:18;5.20;99.90
12655;DHT22;6392;44.644;11.448;2022-12-10T00:14:45;5.20;99.90
12655;DHT22;6392;44.644;11.448;2022-12-10T00:17:12;5.30;99.90
12655;DHT22;6392;44.644;11.448;2022-12-10T00:19:40;5.30;99.90
12655;DHT22;6392;44.644;11.448;2022-12-10T00:22:07;5.30;99.90
12655;DHT22;6392;44.644;11.448;2022-12-10T00:24:36;5.20;99.90
12655;DHT22;6392;44.644;11.448;2022-12-10T00:27:03;5.30;99.90
12655;DHT22;6392;44.644;11.448;2022-12-10T00:29:30;5.20;99.90
12655;DHT22;6392;44.644;11.448;2022-12-10T00:31:57;5.20;99.90
12655;DHT22;6392;44.644;11.448;2022-12-10T00:34:24;5.20;99.90
12655;DHT22;6392;44.644;11.448;2022-12-10T00:36:51;5.20;99.90
12655;DHT22;6392;44.644;11.448;2022-12-10T00:39:19;5.20;99.90
12655;DHT22;6392;44.644;11.448;2022-12-10T00:41:49;5.20;99.90
12655;DHT22;6392;44.644;11.448;2022-12-10T00:44:16;5.20;99.90
12655;DHT22;6392;44.644;11.448;2022-12-10T00:46:44;5.20;99.90
12655;DHT22;6392;44.644;11.448;2022-12-10T00:49:11;5.20;99.90
12655;DHT22;6392;44.644;11.448;2022-12-10T00:51:38;5.20;99.90
12655;DHT22;6392;44.644;11.448;2022-12-10T00:54:07;5.20;99.90
12655;DHT22;6392;44.644;11.448;2022-12-10T00:56:35;5.20;99.90
12655;DHT22;6392;44.644;11.448;2022-12-10T00:59:04;5.20;99.90
12655;DHT22;6392;44.644;11.448;2022-12-10T01:01:33;5.20;99.90
12655;DHT22;6392;44.644;11.448;2022-12-10T01:04:02;5.20;99.90
12655;DHT22;6392;44.644;11.448;2022-12-10T01:06:31;5.20;99.90
12655;DHT22;6392;44.644;11.448;2022-12-10T01:09:00;5.20;99.90
12655;DHT22;6392;44.644;11.448;2022-12-10T01:11:29;5.20;99.90
12655;DHT22;6392;44.644;11.448;2022-12-10T01:13:57;5.20;99.90
12655;DHT22;6392;44.644;11.448;2022-12-10T01:16:26;5.20;99.90
12655;DHT22;6392;44.644;11.448;2022-12-10T01:18:54;5.20;99.90
12655;DHT22;6392;44.644;11.448;2022-12-10T01:21:22;5.20;99.90
12655;DHT22;6392;44.644;11.448;2022-12-10T01:23:51;5.20;99.90
12655;DHT22;6392;44.644;11.448;2022-12-10T01:26:19;5.30;99.90
12655;DHT22;6392;44.644;11.448;2022-12-10T01:28:47;5.30;99.90
12655;DHT22;6392;44.644;11.448;2022-12-10T01:31:16;5.30;99.90
12655;DHT22;6392;44.644;11.448;2022-12-10T01:33:45;5.20;99.90
12655;DHT22;6392;44.644;11.448;2022-12-10T01:36:14;5.20;99.90
12655;DHT22;6392;44.644;11.448;2022-12-10T01:38:42;5.20;99.90
12655;DHT22;6392;44.644;11.448;2022-12-10T01:41:15;5.20;99.90
12655;DHT22;6392;44.644;11.448;2022-12-10T01:44:05;5.20;99.90
12655;DHT22;6392;44.644;11.448;2022-12-10T01:46:53;5.30;99.90
12655;DHT22;6392;44.644;11.448;2022-12-10T01:49:23;5.30;99.90
12655;DHT22;6392;44.644;11.448;2022-12-10T01:51:53;5.30;99.90
12655;DHT22;6392;44.644;11.448;2022-12-10T01:54:23;5.30;99.90
12655;DHT22;6392;44.644;11.448;2022-12-10T01:56:58;5.30;99.90
12655;DHT22;6392;44.644;11.448;2022-12-10T01:59:25;5.30;99.90
12655;DHT22;6392;44.644;11.448;2022-12-10T02:01:57;5.20;99.90
12655;DHT22;6392;44.644;11.448;2022-12-10T02:04:32;5.30;99.90
12655;DHT22;6392;44.644;11.448;2022-12-10T02:07:06;5.30;99.90
12655;DHT22;6392;44.644;11.448;2022-12-10T02:09:37;5.30;99.90
12655;DHT22;6392;44.644;11.448;2022-12-10T02:12:10;5.30;99.90
12655;DHT22;6392;44.644;11.448;2022-12-10T02:14:43;5.30;99.90
12655;DHT22;6392;44.644;11.448;2022-12-10T02:17:17;5.40;99.90
12655;DHT22;6392;44.644;11.448;2022-12-10T02:19:59;5.40;99.90
12655;DHT22;6392;44.644;11.448;2022-12-10T02:22:33;5.40;99.90
12655;DHT22;6392;44.644;11.448;2022-12-10T02:25:02;5.40;99.90
12655;DHT22;6392;44.644;11.448;2022-12-10T02:27:35;5.40;99.90
12655;DHT22;6392;44.644;11.448;2022-12-10T02:30:06;5.30;99.90
12655;DHT22;6392;44.644;11.448;2022-12-10T02:32:37;5.40;99.90
12655;DHT22;6392;44.644;11.448;2022-12-10T02:35:09;5.40;99.90
12655;DHT22;6392;44.644;11.448;2022-12-10T02:37:39;5.40;99.90
12655;DHT22;6392;44.644;11.448;2022-12-10T02:40:11;5.40;99.90
12655;DHT22;6392;44.644;11.448;2022-12-10T02:42:42;5.40;99.90
12655;DHT22;6392;44.644;11.448;2022-12-10T02:45:11;5.40;99.90
12655;DHT22;6392;44.644;11.448;2022-12-10T02:47:39;5.40;99.90
12655;DHT22;6392;44.644;11.448;2022-12-10T02:50:10;5.40;99.90
12655;DHT22;6392;44.644;11.448;2022-12-10T02:52:38;5.40;99.90
12655;DHT22;6392;44.644;11.448;2022-12-10T02:55:05;5.40;99.90
12655;DHT22;6392;44.644;11.448;2022-12-10T02:57:36;5.40;99.90
12655;DHT22;6392;44.644;11.448;2022-12-10T03:00:12;5.40;99.90
12655;DHT22;6392;44.644;11.448;2022-12-10T03:03:07;5.40;99.90
12655;DHT22;6392;44.644;11.448;2022-12-10T03:05:42;5.40;99.90
12655;DHT22;6392;44.644;11.448;2022-12-10T03:08:15;5.40;99.90
12655;DHT22;6392;44.644;11.448;2022-12-10T03:10:50;5.40;99.90
12655;DHT22;6392;44.644;11.448;2022-12-10T03:13:23;5.50;99.90
12655;DHT22;6392;44.644;11.448;2022-12-10T03:15:55;5.50;99.90
12655;DHT22;6392;44.644;11.448;2022-12-10T03:18:24;5.50;99.90
12655;DHT22;6392;44.644;11.448;2022-12-10T03:20:54;5.50;99.90
12655;DHT22;6392;44.644;11.448;2022-12-10T03:23:26;5.50;99.90
12655;DHT22;6392;44.644;11.448;2022-12-10T03:25:55;5.50;99.90
12655;DHT22;6392;44.644;11.448;2022-12-10T03:28:23;5.50;99.90
12655;DHT22;6392;44.644;11.448;2022-12-10T03:30:55;5.50;99.90
12655;DHT22;6392;44.644;11.448;2022-12-10T03:33:23;5.50;99.90
12655;DHT22;6392;44.644;11.448;2022-12-10T03:35:51;5.50;99.90
12655;DHT22;6392;44.644;11.448;2022-12-10T03:38:18;5.50;99.90
12655;DHT22;6392;44.644;11.448;2022-12-10T03:40:45;5.50;99.90
12655;DHT22;6392;44.644;11.448;2022-12-10T03:43:13;5.50;99.90
12655;DHT22;6392;44.644;11.448;2022-12-10T03:45:40;5.50;99.90
12655;DHT22;6392;44.644;11.448;2022-12-10T03:48:09;5.50;99.90
12655;DHT22;6392;44.644;11.448;2022-12-10T03:50:36;5.50;99.90
12655;DHT22;6392;44.644;11.448;2022-12-10T03:53:03;5.50;99.90
12655;DHT22;6392;44.644;11.448;2022-12-10T03:55:30;5.50;99.90
12655;DHT22;6392;44.644;11.448;2022-12-10T03:57:58;5.50;99.90
12655;DHT22;6392;44.644;11.448;2022-12-10T04:00:25;5.40;99.90
12655;DHT22;6392;44.644;11.448;2022-12-10T04:02:52;5.40;99.90
12655;DHT22;6392;44.644;11.448;2022-12-10T04:05:20;5.40;99.90
12655;DHT22;6392;44.644;11.448;2022-12-10T04:07:47;5.40;99.90
12655;DHT22;6392;44.644;11.448;2022-12-10T04:10:15;5.40;99.90
12655;DHT22;6392;44.644;11.448;2022-12-10T04:12:42;5.40;99.90
12655;DHT22;6392;44.644;11.448;2022-12-10T04:15:29;5.40;99.90
12655;DHT22;6392;44.644;11.448;2022-12-10T04:18:10;5.40;99.90
12655;DHT22;6392;44.644;11.448;2022-12-10T04:20:38;5.40;99.90
12655;DHT22;6392;44.644;11.448;2022-12-10T04:23:22;5.40;99.90
12655;DHT22;6392;44.644;11.448;2022-12-10T04:26:07;5.40;99.90
12655;DHT22;6392;44.644;11.448;2022-12-10T04:28:51;5.40;99.90
12655;DHT22;6392;44.644;11.448;2022-12-10T04:31:18;5.40;99.90
12655;DHT22;6392;44.644;11.448;2022-12-10T04:33:45;5.40;99.90
12655;DHT22;6392;44.644;11.448;2022-12-10T04:36:14;5.40;99.90
12655;DHT22;6392;44.644;11.448;2022-12-10T04:38:41;5.40;99.90
12655;DHT22;6392;44.644;11.448;2022-12-10T04:41:08;5.40;99.90
12655;DHT22;6392;44.644;11.448;2022-12-10T04:43:40;5.40;99.90
12655;DHT22;6392;44.644;11.448;2022-12-10T04:46:08;5.40;99.90
12655;DHT22;6392;44.644;11.448;2022-12-10T04:48:36;5.40;99.90
12655;DHT22;6392;44.644;11.448;2022-12-10T04:51:03;5.30;99.90
12655;DHT22;6392;44.644;11.448;2022-12-10T04:53:31;5.30;99.90
12655;DHT22;6392;44.644;11.448;2022-12-10T04:55:58;5.30;99.90
12655;DHT22;6392;44.644;11.448;2022-12-10T04:58:26;5.30;99.90
12655;DHT22;6392;44.644;11.448;2022-12-10T05:01:01;5.20;99.90
12655;DHT22;6392;44.644;11.448;2022-12-10T05:03:28;5.20;99.90
12655;DHT22;6392;44.644;11.448;2022-12-10T05:05:55;5.20;99.90
12655;DHT22;6392;44.644;11.448;2022-12-10T05:08:22;5.20;99.90
12655;DHT22;6392;44.644;11.448;2022-12-10T05:10:51;5.20;99.90
12655;DHT22;6392;44.644;11.448;2022-12-10T05:13:18;5.20;99.90
12655;DHT22;6392;44.644;11.448;2022-12-10T05:15:45;5.20;99.90
12655;DHT22;6392;44.644;11.448;2022-12-10T05:18:12;5.20;99.90
12655;DHT22;6392;44.644;11.448;2022-12-10T05:20:39;5.20;99.90
12655;DHT22;6392;44.644;11.448;2022-12-10T05:23:08;5.20;99.90
12655;DHT22;6392;44.644;11.448;2022-12-10T05:25:59;5.20;99.90
12655;DHT22;6392;44.644;11.448;2022-12-10T05:28:27;5.20;99.90
12655;DHT22;6392;44.644;11.448;2022-12-10T05:30:54;5.10;99.90
12655;DHT22;6392;44.644;11.448;2022-12-10T05:33:21;5.10;99.90
12655;DHT22;6392;44.644;11.448;2022-12-10T05:35:52;5.10;99.90
12655;DHT22;6392;44.644;11.448;2022-12-10T05:38:20;5.10;99.90
12655;DHT22;6392;44.644;11.448;2022-12-10T05:40:47;5.00;99.90
12655;DHT22;6392;44.644;11.448;2022-12-10T05:43:16;5.00;99.90
12655;DHT22;6392;44.644;11.448;2022-12-10T05:45:43;5.00;99.90
12655;DHT22;6392;44.644;11.448;2022-12-10T05:48:11;5.00;99.90
12655;DHT22;6392;44.644;11.448;2022-12-10T05:50:39;5.00;99.90
12655;DHT22;6392;44.644;11.448;2022-12-10T05:53:06;5.00;99.90
12655;DHT22;6392;44.644;11.448;2022-12-10T05:55:34;5.00;99.90
12655;DHT22;6392;44.644;11.448;2022-12-10T05:58:01;5.00;99.90
12655;DHT22;6392;44.644;11.448;2022-12-10T06:00:29;5.00;99.90
12655;DHT22;6392;44.644;11.448;2022-12-10T06:02:56;5.00;99.90
12655;DHT22;6392;44.644;11.448;2022-12-10T06:05:23;5.00;99.90
12655;DHT22;6392;44.644;11.448;2022-12-10T06:07:50;5.00;99.90
12655;DHT22;6392;44.644;11.448;2022-12-10T06:10:17;5.00;99.90
12655;DHT22;6392;44.644;11.448;2022-12-10T06:12:44;5.00;99.90
12655;DHT22;6392;44.644;11.448;2022-12-10T06:15:11;5.00;99.90
12655;DHT22;6392;44.644;11.448;2022-12-10T06:17:40;5.00;99.90
12655;DHT22;6392;44.644;11.448;2022-12-10T06:20:08;5.10;99.90
12655;DHT22;6392;44.644;11.448;2022-12-10T06:22:35;5.00;99.90
12655;DHT22;6392;44.644;11.448;2022-12-10T06:25:03;5.10;99.90
12655;DHT22;6392;44.644;11.448;2022-12-10T06:27:31;5.10;99.90
12655;DHT22;6392;44.644;11.448;2022-12-10T06:29:58;5.10;99.90
12655;DHT22;6392;44.644;11.448;2022-12-10T06:32:25;5.10;99.90
12655;DHT22;6392;44.644;11.448;2022-12-10T06:34:53;5.10;99.90
12655;DHT22;6392;44.644;11.448;2022-12-10T06:37:20;5.10;99.90
12655;DHT22;6392;44.644;11.448;2022-12-10T06:39:50;5.20;99.90
12655;DHT22;6392;44.644;11.448;2022-12-10T06:42:18;5.20;99.90
12655;DHT22;6392;44.644;11.448;2022-12-10T06:44:45;5.20;99.90
12655;DHT22;6392;44.644;11.448;2022-12-10T06:47:12;5.20;99.90
12655;DHT22;6392;44.644;11.448;2022-12-10T06:49:39;5.20;99.90
12655;DHT22;6392;44.644;11.448;2022-12-10T06:52:08;5.20;99.90
12655;DHT22;6392;44.644;11.448;2022-12-10T06:54:35;5.20;99.90
12655;DHT22;6392;44.644;11.448;2022-12-10T06:57:02;5.20;99.90
12655;DHT22;6392;44.644;11.448;2022-12-10T06:59:29;5.30;99.90
12655;DHT22;6392;44.644;11.448;2022-12-10T07:01:56;5.30;99.90
12655;DHT22;6392;44.644;11.448;2022-12-10T07:04:23;5.30;99.90
12655;DHT22;6392;44.644;11.448;2022-12-10T07:06:51;5.20;99.90
12655;DHT22;6392;44.644;11.448;2022-12-10T07:09:19;5.30;99.90
12655;DHT22;6392;44.644;11.448;2022-12-10T07:11:46;5.30;99.90
12655;DHT22;6392;44.644;11.448;2022-12-10T07:14:14;5.30;99.90
12655;DHT22;6392;44.644;11.448;2022-12-10T07:16:42;5.30;99.90
12655;DHT22;6392;44.644;11.448;2022-12-10T07:19:10;5.30;99.90
12655;DHT22;6392;44.644;11.448;2022-12-10T07:21:40;5.30;99.90
12655;DHT22;6392;44.644;11.448;2022-12-10T07:24:10;5.30;99.90
12655;DHT22;6392;44.644;11.448;2022-12-10T07:26:41;5.30;99.90
12655;DHT22;6392;44.644;11.448;2022-12-10T07:29:12;5.30;99.90
12655;DHT22;6392;44.644;11.448;2022-12-10T07:31:40;5.30;99.90
12655;DHT22;6392;44.644;11.448;2022-12-10T07:34:07;5.40;99.90
12655;DHT22;6392;44.644;11.448;2022-12-10T07:36:34;5.40;99.90
12655;DHT22;6392;44.644;11.448;2022-12-10T07:39:01;5.50;99.90
12655;DHT22;6392;44.644;11.448;2022-12-10T07:41:30;5.40;99.90
12655;DHT22;6392;44.644;11.448;2022-12-10T07:43:59;5.50;99.90
12655;DHT22;6392;44.644;11.448;2022-12-10T07:46:28;5.50;99.90
12655;DHT22;6392;44.644;11.448;2022-12-10T07:48:56;5.50;99.90
12655;DHT22;6392;44.644;11.448;2022-12-10T07:51:23;5.50;99.90
12655;DHT22;6392;44.644;11.448;2022-12-10T07:53:52;5.50;99.90
12655;DHT22;6392;44.644;11.448;2022-12-10T07:56:20;5.60;99.90
12655;DHT22;6392;44.644;11.448;2022-12-10T07:58:48;5.60;99.90
12655;DHT22;6392;44.644;11.448;2022-12-10T08:01:19;5.60;99.90
12655;DHT22;6392;44.644;11.448;2022-12-10T08:03:48;5.60;99.90
12655;DHT22;6392;44.644;11.448;2022-12-10T08:06:17;5.60;99.90
12655;DHT22;6392;44.644;11.448;2022-12-10T08:08:45;5.70;99.90
12655;DHT22;6392;44.644;11.448;2022-12-10T08:11:13;5.70;99.90
12655;DHT22;6392;44.644;11.448;2022-12-10T08:13:41;5.70;99.90
12655;DHT22;6392;44.644;11.448;2022-12-10T08:16:11;5.70;99.90
12655;DHT22;6392;44.644;11.448;2022-12-10T08:18:40;5.80;99.90
12655;DHT22;6392;44.644;11.448;2022-12-10T08:21:08;5.80;99.90
12655;DHT22;6392;44.644;11.448;2022-12-10T08:23:36;5.80;99.90
12655;DHT22;6392;44.644;11.448;2022-12-10T08:26:04;5.80;99.90
12655;DHT22;6392;44.644;11.448;2022-12-10T08:28:32;5.90;99.90
12655;DHT22;6392;44.644;11.448;2022-12-10T08:30:59;5.90;99.90
12655;DHT22;6392;44.644;11.448;2022-12-10T08:33:26;5.90;99.90
12655;DHT22;6392;44.644;11.448;2022-12-10T08:35:58;6.00;99.90
12655;DHT22;6392;44.644;11.448;2022-12-10T08:38:26;6.00;99.90
12655;DHT22;6392;44.644;11.448;2022-12-10T08:40:53;6.00;99.90
12655;DHT22;6392;44.644;11.448;2022-12-10T08:43:20;6.00;99.90
12655;DHT22;6392;44.644;11.448;2022-12-10T08:45:47;6.00;99.90
12655;DHT22;6392;44.644;11.448;2022-12-10T08:48:14;6.00;99.90
12655;DHT22;6392;44.644;11.448;2022-12-10T08:50:42;6.00;99.90
12655;DHT22;6392;44.644;11.448;2022-12-10T08:53:10;6.00;99.90
12655;DHT22;6392;44.644;11.448;2022-12-10T08:55:38;6.10;99.90
12655;DHT22;6392;44.644;11.448;2022-12-10T08:58:06;6.10;99.90
12655;DHT22;6392;44.644;11.448;2022-12-10T09:00:34;6.10;99.90
12655;DHT22;6392;44.644;11.448;2022-12-10T09:03:01;6.10;99.90
12655;DHT22;6392;44.644;11.448;2022-12-10T09:05:28;6.10;99.90
12655;DHT22;6392;44.644;11.448;2022-12-10T09:07:55;6.10;99.90
12655;DHT22;6392;44.644;11.448;2022-12-10T09:10:23;6.10;99.90
12655;DHT22;6392;44.644;11.448;2022-12-10T09:12:50;6.20;99.90
12655;DHT22;6392;44.644;11.448;2022-12-10T09:15:21;6.20;99.90
12655;DHT22;6392;44.644;11.448;2022-12-10T09:17:48;6.20;99.90
12655;DHT22;6392;44.644;11.448;2022-12-10T09:20:15;6.30;99.90
12655;DHT22;6392;44.644;11.448;2022-12-10T09:22:42;6.30;99.90
12655;DHT22;6392;44.644;11.448;2022-12-10T09:25:09;6.30;99.90
12655;DHT22;6392;44.644;11.448;2022-12-10T09:27:38;6.30;99.90
12655;DHT22;6392;44.644;11.448;2022-12-10T09:30:07;6.30;99.90
12655;DHT22;6392;44.644;11.448;2022-12-10T09:32:34;6.30;99.90
12655;DHT22;6392;44.644;11.448;2022-12-10T09:35:01;6.30;99.90
12655;DHT22;6392;44.644;11.448;2022-12-10T09:37:29;6.40;99.90
12655;DHT22;6392;44.644;11.448;2022-12-10T09:39:56;6.30;99.90
12655;DHT22;6392;44.644;11.448;2022-12-10T09:42:31;6.30;99.90
12655;DHT22;6392;44.644;11.448;2022-12-10T09:45:08;6.30;99.90
12655;DHT22;6392;44.644;11.448;2022-12-10T09:47:45;6.40;99.90
12655;DHT22;6392;44.644;11.448;2022-12-10T09:50:20;6.40;99.90
12655;DHT22;6392;44.644;11.448;2022-12-10T09:52:50;6.40;99.90
12655;DHT22;6392;44.644;11.448;2022-12-10T09:55:23;6.40;99.90
12655;DHT22;6392;44.644;11.448;2022-12-10T09:57:54;6.40;99.90
12655;DHT22;6392;44.644;11.448;2022-12-10T10:00:26;6.40;99.90
12655;DHT22;6392;44.644;11.448;2022-12-10T10:02:57;6.50;99.90
12655;DHT22;6392;44.644;11.448;2022-12-10T10:05:27;6.50;99.90
12655;DHT22;6392;44.644;11.448;2022-12-10T10:07:56;6.50;99.90
12655;DHT22;6392;44.644;11.448;2022-12-10T10:10:27;6.50;99.90
12655;DHT22;6392;44.644;11.448;2022-12-10T10:12:57;6.50;99.90
12655;DHT22;6392;44.644;11.448;2022-12-10T10:15:31;6.50;99.90
12655;DHT22;6392;44.644;11.448;2022-12-10T10:18:03;6.60;99.90
12655;DHT22;6392;44.644;11.448;2022-12-10T10:20:31;6.60;99.90
12655;DHT22;6392;44.644;11.448;2022-12-10T10:22:59;6.50;99.90
12655;DHT22;6392;44.644;11.448;2022-12-10T10:25:27;6.60;99.90
12655;DHT22;6392;44.644;11.448;2022-12-10T10:27:55;6.50;99.90
12655;DHT22;6392;44.644;11.448;2022-12-10T10:30:23;6.60;99.90
12655;DHT22;6392;44.644;11.448;2022-12-10T10:32:54;6.60;99.90
12655;DHT22;6392;44.644;11.448;2022-12-10T10:35:27;6.50;99.90
12655;DHT22;6392;44.644;11.448;2022-12-10T10:37:59;6.50;99.90
12655;DHT22;6392;44.644;11.448;2022-12-10T10:40:30;6.50;99.90
12655;DHT22;6392;44.644;11.448;2022-12-10T10:42:58;6.60;99.90
12655;DHT22;6392;44.644;11.448;2022-12-10T10:45:40;6.60;99.90
12655;DHT22;6392;44.644;11.448;2022-12-10T10:48:13;6.60;99.90
12655;DHT22;6392;44.644;11.448;2022-12-10T10:50:43;6.60;99.90
12655;DHT22;6392;44.644;11.448;2022-12-10T10:53:27;6.60;99.90
12655;DHT22;6392;44.644;11.448;2022-12-10T10:55:57;6.60;99.90
12655;DHT22;6392;44.644;11.448;2022-12-10T10:58:24;6.70;99.90
12655;DHT22;6392;44.644;11.448;2022-12-10T11:00:58;6.70;99.90
12655;DHT22;6392;44.644;11.448;2022-12-10T11:03:31;6.70;99.90
12655;DHT22;6392;44.644;11.448;2022-12-10T11:06:00;6.70;99.90
12655;DHT22;6392;44.644;11.448;2022-12-10T11:08:30;6.70;99.90
12655;DHT22;6392;44.644;11.448;2022-12-10T11:11:01;6.70;99.90
12655;DHT22;6392;44.644;11.448;2022-12-10T11:13:30;6.80;99.90
12655;DHT22;6392;44.644;11.448;2022-12-10T11:16:01;6.70;99.90
12655;DHT22;6392;44.644;11.448;2022-12-10T11:18:38;6.80;99.90
12655;DHT22;6392;44.644;11.448;2022-12-10T11:21:17;6.80;99.90
12655;DHT22;6392;44.644;11.448;2022-12-10T11:23:48;6.80;99.90
12655;DHT22;6392;44.644;11.448;2022-12-10T11:26:38;6.80;99.90
12655;DHT22;6392;44.644;11.448;2022-12-10T11:32:25;6.80;99.90
12655;DHT22;6392;44.644;11.448;2022-12-10T11:35:05;6.80;99.90
12655;DHT22;6392;44.644;11.448;2022-12-10T11:37:39;6.90;99.90
12655;DHT22;6392;44.644;11.448;2022-12-10T11:40:35;6.90;99.90
12655;DHT22;6392;44.644;11.448;2022-12-10T11:43:28;6.90;99.90
12655;DHT22;6392;44.644;11.448;2022-12-10T11:46:10;6.90;99.90
12655;DHT22;6392;44.644;11.448;2022-12-10T11:48:53;6.80;99.90
12655;DHT22;6392;44.644;11.448;2022-12-10T11:51:30;6.90;99.90
12655;DHT22;6392;44.644;11.448;2022-12-10T11:54:28;6.90;99.90
12655;DHT22;6392;44.644;11.448;2022-12-10T11:57:05;6.90;99.90
12655;DHT22;6392;44.644;11.448;2022-12-10T11:59:41;6.90;99.90
12655;DHT22;6392;44.644;11.448;2022-12-10T12:02:29;6.90;99.90
12655;DHT22;6392;44.644;11.448;2022-12-10T12:05:14;6.90;99.90
12655;DHT22;6392;44.644;11.448;2022-12-10T12:07:53;6.90;99.90
12655;DHT22;6392;44.644;11.448;2022-12-10T12:10:49;7.00;99.90
12655;DHT22;6392;44.644;11.448;2022-12-10T12:13:22;7.00;99.90
12655;DHT22;6392;44.644;11.448;2022-12-10T12:15:53;7.00;99.90
12655;DHT22;6392;44.644;11.448;2022-12-10T12:18:28;6.90;99.90
12655;DHT22;6392;44.644;11.448;2022-12-10T12:21:01;7.00;99.90
12655;DHT22;6392;44.644;11.448;2022-12-10T12:23:39;7.00;99.90
12655;DHT22;6392;44.644;11.448;2022-12-10T12:26:12;7.00;99.90
12655;DHT22;6392;44.644;11.448;2022-12-10T12:28:46;7.00;99.90
12655;DHT22;6392;44.644;11.448;2022-12-10T12:31:16;7.00;99.90
12655;DHT22;6392;44.644;11.448;2022-12-10T12:33:50;7.00;99.90
12655;DHT22;6392;44.644;11.448;2022-12-10T12:36:21;7.00;99.90
12655;DHT22;6392;44.644;11.448;2022-12-10T12:38:53;7.00;99.90
12655;DHT22;6392;44.644;11.448;2022-12-10T12:41:31;7.00;99.90
12655;DHT22;6392;44.644;11.448;2022-12-10T12:44:04;7.00;99.90
12655;DHT22;6392;44.644;11.448;2022-12-10T12:46:37;7.00;99.90
12655;DHT22;6392;44.644;11.448;2022-12-10T12:49:13;7.00;99.90
12655;DHT22;6392;44.644;11.448;2022-12-10T12:51:48;7.00;99.90
12655;DHT22;6392;44.644;11.448;2022-12-10T12:54:18;7.00;99.90
12655;DHT22;6392;44.644;11.448;2022-12-10T12:56:58;7.00;99.90
12655;DHT22;6392;44.644;11.448;2022-12-10T12:59:41;7.00;99.90
12655;DHT22;6392;44.644;11.448;2022-12-10T13:02:22;7.00;99.90
12655;DHT22;6392;44.644;11.448;2022-12-10T13:04:52;7.00;99.90
12655;DHT22;6392;44.644;11.448;2022-12-10T13:07:33;7.10;99.90
12655;DHT22;6392;44.644;11.448;2022-12-10T13:10:23;7.10;99.90
12655;DHT22;6392;44.644;11.448;2022-12-10T13:13:05;7.10;99.90
12655;DHT22;6392;44.644;11.448;2022-12-10T13:15:34;7.00;99.90
12655;DHT22;6392;44.644;11.448;2022-12-10T13:18:22;7.00;99.90
12655;DHT22;6392;44.644;11.448;2022-12-10T13:20:51;7.00;99.90
12655;DHT22;6392;44.644;11.448;2022-12-10T13:23:48;7.00;99.90
12655;DHT22;6392;44.644;11.448;2022-12-10T13:26:25;7.00;99.90
12655;DHT22;6392;44.644;11.448;2022-12-10T13:28:54;7.00;99.90
12655;DHT22;6392;44.644;11.448;2022-12-10T13:34:30;7.00;99.90
12655;DHT22;6392;44.644;11.448;2022-12-10T13:37:15;7.00;99.90
12655;DHT22;6392;44.644;11.448;2022-12-10T13:39:47;6.90;99.90
12655;DHT22;6392;44.644;11.448;2022-12-10T13:42:34;7.00;99.90
12655;DHT22;6392;44.644;11.448;2022-12-10T13:45:33;7.00;99.90
12655;DHT22;6392;44.644;11.448;2022-12-10T13:48:29;7.00;99.90
12655;DHT22;6392;44.644;11.448;2022-12-10T13:51:18;7.00;99.90
12655;DHT22;6392;44.644;11.448;2022-12-10T13:53:56;7.00;99.90
12655;DHT22;6392;44.644;11.448;2022-12-10T13:56:28;7.00;99.90
12655;DHT22;6392;44.644;11.448;2022-12-10T13:59:08;7.00;99.90
12655;DHT22;6392;44.644;11.448;2022-12-10T14:01:47;7.00;99.90
12655;DHT22;6392;44.644;11.448;2022-12-10T14:04:43;7.00;99.90
12655;DHT22;6392;44.644;11.448;2022-12-10T14:07:13;7.00;99.90
12655;DHT22;6392;44.644;11.448;2022-12-10T14:09:46;7.00;99.90
12655;DHT22;6392;44.644;11.448;2022-12-10T14:12:17;7.00;99.90
12655;DHT22;6392;44.644;11.448;2022-12-10T14:14:50;7.00;99.90
12655;DHT22;6392;44.644;11.448;2022-12-10T14:17:22;7.10;99.90
12655;DHT22;6392;44.644;11.448;2022-12-10T14:19:53;7.10;99.90
12655;DHT22;6392;44.644;11.448;2022-12-10T14:22:27;7.00;99.90
12655;DHT22;6392;44.644;11.448;2022-12-10T14:24:59;7.00;99.90
12655;DHT22;6392;44.644;11.448;2022-12-10T14:27:28;7.00;99.90
12655;DHT22;6392;44.644;11.448;2022-12-10T14:30:02;7.00;99.90
12655;DHT22;6392;44.644;11.448;2022-12-10T14:32:33;7.00;99.90
12655;DHT22;6392;44.644;11.448;2022-12-10T14:35:02;7.00;99.90
12655;DHT22;6392;44.644;11.448;2022-12-10T14:37:33;7.00;99.90
12655;DHT22;6392;44.644;11.448;2022-12-10T14:40:04;7.00;99.90
12655;DHT22;6392;44.644;11.448;2022-12-10T14:42:32;7.00;99.90
12655;DHT22;6392;44.644;11.448;2022-12-10T14:45:04;7.00;99.90
12655;DHT22;6392;44.644;11.448;2022-12-10T14:47:35;7.00;99.90
12655;DHT22;6392;44.644;11.448;2022-12-10T14:50:05;7.00;99.90
12655;DHT22;6392;44.644;11.448;2022-12-10T14:52:38;6.90;99.90
12655;DHT22;6392;44.644;11.448;2022-12-10T14:55:11;7.00;99.90
12655;DHT22;6392;44.644;11.448;2022-12-10T14:57:41;7.00;99.90
12655;DHT22;6392;44.644;11.448;2022-12-10T15:00:14;7.00;99.90
12655;DHT22;6392;44.644;11.448;2022-12-10T15:02:44;7.00;99.90
12655;DHT22;6392;44.644;11.448;2022-12-10T15:05:13;7.00;99.90
12655;DHT22;6392;44.644;11.448;2022-12-10T15:07:42;7.00;99.90
12655;DHT22;6392;44.644;11.448;2022-12-10T15:10:19;7.00;99.90
12655;DHT22;6392;44.644;11.448;2022-12-10T15:12:48;7.00;99.90
12655;DHT22;6392;44.644;11.448;2022-12-10T15:15:23;7.00;99.90
12655;DHT22;6392;44.644;11.448;2022-12-10T15:17:58;7.00;99.90
12655;DHT22;6392;44.644;11.448;2022-12-10T15:20:27;7.00;99.90
12655;DHT22;6392;44.644;11.448;2022-12-10T15:23:07;7.00;99.90
12655;DHT22;6392;44.644;11.448;2022-12-10T15:25:43;7.00;99.90
12655;DHT22;6392;44.644;11.448;2022-12-10T15:28:22;7.00;99.90
12655;DHT22;6392;44.644;11.448;2022-12-10T15:30:54;7.10;99.90
12655;DHT22;6392;44.644;11.448;2022-12-10T15:33:31;7.10;99.90
12655;DHT22;6392;44.644;11.448;2022-12-10T15:36:00;7.10;99.90
12655;DHT22;6392;44.644;11.448;2022-12-10T15:38:28;7.10;99.90
12655;DHT22;6392;44.644;11.448;2022-12-10T15:41:00;7.10;99.90
12655;DHT22;6392;44.644;11.448;2022-12-10T15:43:53;7.10;99.90
12655;DHT22;6392;44.644;11.448;2022-12-10T15:46:24;7.10;99.90
12655;DHT22;6392;44.644;11.448;2022-12-10T15:48:51;7.10;99.90
12655;DHT22;6392;44.644;11.448;2022-12-10T15:51:18;7.10;99.90
12655;DHT22;6392;44.644;11.448;2022-12-10T15:53:46;7.10;99.90
12655;DHT22;6392;44.644;11.448;2022-12-10T15:56:13;7.10;99.90
12655;DHT22;6392;44.644;11.448;2022-12-10T15:58:40;7.10;99.90
12655;DHT22;6392;44.644;11.448;2022-12-10T16:01:09;7.10;99.90
12655;DHT22;6392;44.644;11.448;2022-12-10T16:03:40;7.10;99.90
12655;DHT22;6392;44.644;11.448;2022-12-10T16:06:07;7.10;99.90
12655;DHT22;6392;44.644;11.448;2022-12-10T16:08:35;7.10;99.90
12655;DHT22;6392;44.644;11.448;2022-12-10T16:11:06;7.10;99.90
12655;DHT22;6392;44.644;11.448;2022-12-10T16:13:37;7.10;99.90
12655;DHT22;6392;44.644;11.448;2022-12-10T16:16:08;7.10;99.90